EPE787 OPLA-OPKC
Flight info
| Callsign | EPE787 |
|---|---|
| Flight time | 1h 27m |
| Altitude | 32000 |
| Route | MIMAL G214 RK J112 NH |
| Aircraft | B733/M-SDE2E3FHIRW/S |
Departure
| Time | 2026-05-06 07:21 |
|---|---|
| Airport | Allama Iqbal International Airport (OPLA) |
Arrival
| Time | 2026-05-06 08:48 |
|---|---|
| Airport | Jinnah International Airport (OPKC) |
| Time | Latitude | Longitude | Altitude | Speed | Heading |
|---|---|---|---|---|---|
| 2026-05-06 06:41 | 31.52315 | 74.40959 | 711 ft | 0 kts | 90° |
| 2026-05-06 07:08 | 31.52315 | 74.40956 | 711 ft | 2 kts | 90° |
| 2026-05-06 07:08 | 31.52315 | 74.40939 | 711 ft | 2 kts | 90° |
| 2026-05-06 07:08 | 31.52315 | 74.40923 | 711 ft | 1 kts | 91° |
| 2026-05-06 07:08 | 31.52316 | 74.40907 | 711 ft | 3 kts | 94° |
| 2026-05-06 07:09 | 31.52318 | 74.40877 | 711 ft | 3 kts | 92° |
| 2026-05-06 07:09 | 31.52318 | 74.40848 | 711 ft | 3 kts | 90° |
| 2026-05-06 07:09 | 31.52318 | 74.40818 | 711 ft | 3 kts | 88° |
| 2026-05-06 07:09 | 31.52315 | 74.40792 | 711 ft | 3 kts | 76° |
| 2026-05-06 07:10 | 31.52310 | 74.40778 | 711 ft | 0 kts | 15° |
| 2026-05-06 07:10 | 31.52304 | 74.40778 | 711 ft | 0 kts | 353° |
| 2026-05-06 07:14 | 31.52309 | 74.40778 | 711 ft | 4 kts | 9° |
| 2026-05-06 07:14 | 31.52332 | 74.40810 | 711 ft | 3 kts | 60° |
| 2026-05-06 07:15 | 31.52352 | 74.40842 | 711 ft | 6 kts | 33° |
| 2026-05-06 07:15 | 31.52398 | 74.40816 | 711 ft | 9 kts | 295° |
| 2026-05-06 07:15 | 31.52407 | 74.40734 | 711 ft | 10 kts | 264° |
| 2026-05-06 07:15 | 31.52356 | 74.40674 | 711 ft | 10 kts | 188° |
| 2026-05-06 07:16 | 31.52277 | 74.40672 | 711 ft | 10 kts | 180° |
| 2026-05-06 07:16 | 31.52200 | 74.40670 | 711 ft | 11 kts | 181° |
| 2026-05-06 07:16 | 31.52118 | 74.40667 | 710 ft | 12 kts | 181° |
| 2026-05-06 07:16 | 31.52027 | 74.40667 | 708 ft | 13 kts | 180° |
| 2026-05-06 07:17 | 31.51923 | 74.40665 | 706 ft | 15 kts | 180° |
| 2026-05-06 07:17 | 31.51811 | 74.40665 | 705 ft | 16 kts | 179° |
| 2026-05-06 07:17 | 31.51695 | 74.40661 | 705 ft | 16 kts | 181° |
| 2026-05-06 07:17 | 31.51579 | 74.40659 | 705 ft | 16 kts | 180° |
| 2026-05-06 07:18 | 31.51462 | 74.40656 | 705 ft | 16 kts | 180° |
| 2026-05-06 07:18 | 31.51346 | 74.40657 | 705 ft | 16 kts | 181° |
| 2026-05-06 07:18 | 31.51230 | 74.40652 | 705 ft | 16 kts | 180° |
| 2026-05-06 07:18 | 31.51112 | 74.40651 | 705 ft | 16 kts | 180° |
| 2026-05-06 07:19 | 31.50995 | 74.40649 | 705 ft | 16 kts | 181° |
| 2026-05-06 07:19 | 31.50878 | 74.40646 | 705 ft | 16 kts | 180° |
| 2026-05-06 07:19 | 31.50776 | 74.40630 | 705 ft | 13 kts | 201° |
| 2026-05-06 07:19 | 31.50708 | 74.40557 | 705 ft | 13 kts | 230° |
| 2026-05-06 07:20 | 31.50668 | 74.40460 | 705 ft | 12 kts | 277° |
| 2026-05-06 07:20 | 31.50705 | 74.40427 | 705 ft | 5 kts | 6° |
| 2026-05-06 07:20 | 31.50781 | 74.40432 | 705 ft | 24 kts | 1° |
| 2026-05-06 07:20 | 31.51199 | 74.40439 | 705 ft | 86 kts | 1° |
| 2026-05-06 07:21 | 31.52014 | 74.40455 | 708 ft | 137 kts | 0° |
| 2026-05-06 07:21 | 31.53163 | 74.40472 | 714 ft | 175 kts | 359° |
| 2026-05-06 07:21 | 31.54399 | 74.40489 | 1076 ft | 175 kts | 359° |
| 2026-05-06 07:21 | 31.55711 | 74.40390 | 1340 ft | 188 kts | 343° |
| 2026-05-06 07:22 | 31.56864 | 74.39568 | 1648 ft | 192 kts | 306° |
| 2026-05-06 07:22 | 31.57289 | 74.38064 | 1840 ft | 204 kts | 263° |
| 2026-05-06 07:22 | 31.56966 | 74.36356 | 2017 ft | 221 kts | 252° |
| 2026-05-06 07:22 | 31.56260 | 74.34605 | 2149 ft | 247 kts | 234° |
| 2026-05-06 07:23 | 31.55120 | 74.32974 | 2431 ft | 265 kts | 238° |
| 2026-05-06 07:23 | 31.54181 | 74.31121 | 2977 ft | 271 kts | 240° |
| 2026-05-06 07:23 | 31.53203 | 74.29208 | 3596 ft | 275 kts | 239° |
| 2026-05-06 07:23 | 31.52209 | 74.27307 | 4300 ft | 275 kts | 239° |
| 2026-05-06 07:24 | 31.51200 | 74.25405 | 4981 ft | 276 kts | 239° |
| 2026-05-06 07:24 | 31.50180 | 74.23500 | 5661 ft | 278 kts | 239° |
| 2026-05-06 07:24 | 31.49147 | 74.21581 | 6338 ft | 279 kts | 239° |
| 2026-05-06 07:24 | 31.48111 | 74.19664 | 7008 ft | 281 kts | 239° |
| 2026-05-06 07:25 | 31.47055 | 74.17714 | 7655 ft | 283 kts | 239° |
| 2026-05-06 07:25 | 31.46003 | 74.15775 | 8301 ft | 285 kts | 239° |
| 2026-05-06 07:25 | 31.44943 | 74.13825 | 8988 ft | 287 kts | 240° |
| 2026-05-06 07:25 | 31.43874 | 74.11858 | 9652 ft | 290 kts | 240° |
| 2026-05-06 07:26 | 31.42783 | 74.09853 | 10099 ft | 301 kts | 240° |
| 2026-05-06 07:26 | 31.41616 | 74.07707 | 10162 ft | 325 kts | 240° |
| 2026-05-06 07:26 | 31.40360 | 74.05402 | 10517 ft | 338 kts | 239° |
| 2026-05-06 07:26 | 31.39091 | 74.03079 | 11135 ft | 343 kts | 240° |
| 2026-05-06 07:27 | 31.37810 | 74.00733 | 11778 ft | 346 kts | 240° |
| 2026-05-06 07:27 | 31.36516 | 73.98365 | 12406 ft | 349 kts | 240° |
| 2026-05-06 07:27 | 31.35187 | 73.95945 | 13048 ft | 353 kts | 239° |
| 2026-05-06 07:27 | 31.33643 | 73.93690 | 13618 ft | 360 kts | 232° |
| 2026-05-06 07:28 | 31.31982 | 73.91499 | 14210 ft | 364 kts | 232° |
| 2026-05-06 07:28 | 31.30313 | 73.89278 | 14817 ft | 368 kts | 232° |
| 2026-05-06 07:28 | 31.26901 | 73.84717 | 15967 ft | 376 kts | 232° |
| 2026-05-06 07:29 | 31.25179 | 73.82412 | 16555 ft | 380 kts | 233° |
| 2026-05-06 07:29 | 31.23437 | 73.80079 | 17113 ft | 384 kts | 233° |
| 2026-05-06 07:29 | 31.21684 | 73.77734 | 17668 ft | 387 kts | 233° |
| 2026-05-06 07:29 | 31.19912 | 73.75363 | 18263 ft | 390 kts | 233° |
| 2026-05-06 07:30 | 31.18120 | 73.72968 | 18853 ft | 392 kts | 234° |
| 2026-05-06 07:30 | 31.16312 | 73.70551 | 19415 ft | 395 kts | 234° |
| 2026-05-06 07:30 | 31.14506 | 73.68142 | 19979 ft | 398 kts | 234° |
| 2026-05-06 07:30 | 31.12681 | 73.65707 | 20531 ft | 400 kts | 234° |
| 2026-05-06 07:31 | 31.10848 | 73.63264 | 21104 ft | 402 kts | 234° |
| 2026-05-06 07:31 | 31.08982 | 73.60777 | 21619 ft | 405 kts | 234° |
| 2026-05-06 07:31 | 31.07127 | 73.58306 | 22163 ft | 408 kts | 234° |
| 2026-05-06 07:31 | 31.05614 | 73.56292 | 22523 ft | 411 kts | 235° |
| 2026-05-06 07:32 | 31.03717 | 73.53770 | 23082 ft | 412 kts | 235° |
| 2026-05-06 07:32 | 31.02044 | 73.51545 | 23427 ft | 416 kts | 235° |
| 2026-05-06 07:32 | 31.00125 | 73.48994 | 23876 ft | 419 kts | 235° |
| 2026-05-06 07:32 | 30.98200 | 73.46439 | 24316 ft | 422 kts | 235° |
| 2026-05-06 07:33 | 30.96260 | 73.43864 | 24711 ft | 426 kts | 235° |
| 2026-05-06 07:33 | 30.94308 | 73.41277 | 25109 ft | 429 kts | 235° |
| 2026-05-06 07:33 | 30.92345 | 73.38676 | 25558 ft | 430 kts | 235° |
| 2026-05-06 07:33 | 30.90348 | 73.36031 | 25942 ft | 433 kts | 235° |
| 2026-05-06 07:34 | 30.88345 | 73.33385 | 26164 ft | 440 kts | 234° |
| 2026-05-06 07:34 | 30.86321 | 73.30714 | 26621 ft | 441 kts | 234° |
| 2026-05-06 07:34 | 30.84296 | 73.28043 | 26992 ft | 444 kts | 234° |
| 2026-05-06 07:34 | 30.82232 | 73.25317 | 27366 ft | 447 kts | 234° |
| 2026-05-06 07:35 | 30.80177 | 73.22606 | 27756 ft | 449 kts | 234° |
| 2026-05-06 07:35 | 30.78116 | 73.19889 | 28118 ft | 451 kts | 234° |
| 2026-05-06 07:35 | 30.76045 | 73.17160 | 28565 ft | 451 kts | 235° |
| 2026-05-06 07:35 | 30.73975 | 73.14436 | 29062 ft | 450 kts | 235° |
| 2026-05-06 07:36 | 30.71915 | 73.11726 | 29541 ft | 449 kts | 235° |
| 2026-05-06 07:36 | 30.69862 | 73.09027 | 29978 ft | 448 kts | 235° |
| 2026-05-06 07:36 | 30.67784 | 73.06297 | 30420 ft | 446 kts | 235° |
| 2026-05-06 07:36 | 30.65743 | 73.03619 | 30864 ft | 443 kts | 236° |
| 2026-05-06 07:37 | 30.63716 | 73.00960 | 31307 ft | 440 kts | 236° |
| 2026-05-06 07:37 | 30.61701 | 72.98317 | 31664 ft | 440 kts | 236° |
| 2026-05-06 07:37 | 30.59650 | 72.95627 | 31784 ft | 440 kts | 236° |
| 2026-05-06 07:37 | 30.57631 | 72.92983 | 31814 ft | 439 kts | 236° |
| 2026-05-06 07:38 | 30.53584 | 72.87690 | 31785 ft | 437 kts | 236° |
| 2026-05-06 07:38 | 30.49572 | 72.82447 | 31791 ft | 437 kts | 235° |
| 2026-05-06 07:39 | 30.45550 | 72.77200 | 31823 ft | 438 kts | 235° |
| 2026-05-06 07:39 | 30.41506 | 72.71933 | 31813 ft | 435 kts | 235° |
| 2026-05-06 07:40 | 30.37507 | 72.66730 | 31787 ft | 433 kts | 236° |
| 2026-05-06 07:40 | 30.33522 | 72.61554 | 31768 ft | 427 kts | 236° |
| 2026-05-06 07:41 | 30.29597 | 72.56459 | 31780 ft | 426 kts | 236° |
| 2026-05-06 07:41 | 30.25631 | 72.51318 | 31784 ft | 427 kts | 236° |
| 2026-05-06 07:42 | 30.21696 | 72.46224 | 31782 ft | 427 kts | 236° |
| 2026-05-06 07:42 | 30.17193 | 72.41652 | 31788 ft | 438 kts | 222° |
| 2026-05-06 07:43 | 30.12192 | 72.37650 | 31765 ft | 438 kts | 223° |
| 2026-05-06 07:43 | 30.07228 | 72.33558 | 31757 ft | 438 kts | 223° |
| 2026-05-06 07:44 | 30.02300 | 72.29466 | 31783 ft | 437 kts | 223° |
| 2026-05-06 07:44 | 29.97351 | 72.25372 | 31770 ft | 437 kts | 223° |
| 2026-05-06 07:45 | 29.92404 | 72.21287 | 31818 ft | 440 kts | 223° |
| 2026-05-06 07:45 | 29.87394 | 72.17149 | 31801 ft | 440 kts | 225° |
| 2026-05-06 07:46 | 29.85248 | 72.14738 | 31803 ft | 428 kts | 236° |
| 2026-05-06 07:46 | 29.83319 | 72.12149 | 31778 ft | 428 kts | 237° |
| 2026-05-06 07:46 | 29.79432 | 72.06970 | 31797 ft | 429 kts | 236° |
| 2026-05-06 07:47 | 29.75486 | 72.01806 | 31773 ft | 428 kts | 236° |
| 2026-05-06 07:47 | 29.71562 | 71.96689 | 31783 ft | 428 kts | 236° |
| 2026-05-06 07:48 | 29.67623 | 71.91563 | 31726 ft | 425 kts | 236° |
| 2026-05-06 07:48 | 29.63740 | 71.86512 | 31725 ft | 423 kts | 236° |
| 2026-05-06 07:49 | 29.59835 | 71.81440 | 31766 ft | 423 kts | 236° |
| 2026-05-06 07:49 | 29.55956 | 71.76408 | 31769 ft | 423 kts | 236° |
| 2026-05-06 07:50 | 29.52043 | 71.71338 | 31770 ft | 422 kts | 236° |
| 2026-05-06 07:50 | 29.48164 | 71.66319 | 31752 ft | 422 kts | 236° |
| 2026-05-06 07:51 | 29.44260 | 71.61275 | 31753 ft | 423 kts | 236° |
| 2026-05-06 07:51 | 29.40367 | 71.56251 | 31768 ft | 422 kts | 236° |
| 2026-05-06 07:52 | 29.36469 | 71.51226 | 31759 ft | 423 kts | 236° |
| 2026-05-06 07:52 | 29.32556 | 71.46188 | 31768 ft | 422 kts | 236° |
| 2026-05-06 07:53 | 29.28657 | 71.41203 | 31768 ft | 421 kts | 235° |
| 2026-05-06 07:53 | 29.24676 | 71.36237 | 31755 ft | 423 kts | 235° |
| 2026-05-06 07:54 | 29.20721 | 71.31274 | 31753 ft | 423 kts | 235° |
| 2026-05-06 07:54 | 29.16757 | 71.26299 | 31774 ft | 423 kts | 234° |
| 2026-05-06 07:55 | 29.12813 | 71.21366 | 31761 ft | 422 kts | 234° |
| 2026-05-06 07:55 | 29.08833 | 71.16393 | 31763 ft | 422 kts | 235° |
| 2026-05-06 07:56 | 29.04864 | 71.11439 | 31760 ft | 423 kts | 235° |
| 2026-05-06 07:56 | 29.00900 | 71.06499 | 31759 ft | 423 kts | 235° |
| 2026-05-06 07:57 | 28.96923 | 71.01549 | 31762 ft | 422 kts | 235° |
| 2026-05-06 07:57 | 28.92947 | 70.96605 | 31765 ft | 423 kts | 235° |
| 2026-05-06 07:58 | 28.88960 | 70.91657 | 31821 ft | 425 kts | 234° |
| 2026-05-06 07:58 | 28.84970 | 70.86738 | 31829 ft | 424 kts | 234° |
| 2026-05-06 07:59 | 28.80960 | 70.81776 | 31751 ft | 423 kts | 234° |
| 2026-05-06 07:59 | 28.76990 | 70.76864 | 31758 ft | 424 kts | 234° |
| 2026-05-06 08:00 | 28.72984 | 70.71915 | 31695 ft | 423 kts | 235° |
| 2026-05-06 08:00 | 28.69010 | 70.67009 | 31698 ft | 425 kts | 235° |
| 2026-05-06 08:01 | 28.64991 | 70.62054 | 31764 ft | 425 kts | 235° |
| 2026-05-06 08:01 | 28.60991 | 70.57130 | 31767 ft | 425 kts | 235° |
| 2026-05-06 08:02 | 28.56975 | 70.52193 | 31753 ft | 424 kts | 235° |
| 2026-05-06 08:02 | 28.52977 | 70.47281 | 31759 ft | 424 kts | 235° |
| 2026-05-06 08:03 | 28.48949 | 70.42339 | 31762 ft | 426 kts | 235° |
| 2026-05-06 08:03 | 28.44940 | 70.37428 | 31758 ft | 426 kts | 235° |
| 2026-05-06 08:04 | 28.40922 | 70.32502 | 31739 ft | 426 kts | 235° |
| 2026-05-06 08:04 | 28.36875 | 70.27556 | 31761 ft | 428 kts | 233° |
| 2026-05-06 08:05 | 28.32228 | 70.23214 | 31759 ft | 436 kts | 226° |
| 2026-05-06 08:05 | 28.27459 | 70.18939 | 31754 ft | 435 kts | 227° |
| 2026-05-06 08:06 | 28.22743 | 70.14654 | 31758 ft | 435 kts | 227° |
| 2026-05-06 08:06 | 28.18035 | 70.10374 | 31754 ft | 435 kts | 227° |
| 2026-05-06 08:07 | 28.13284 | 70.06060 | 31754 ft | 436 kts | 227° |
| 2026-05-06 08:07 | 28.08573 | 70.01787 | 31755 ft | 436 kts | 227° |
| 2026-05-06 08:08 | 28.03858 | 69.97516 | 31766 ft | 435 kts | 227° |
| 2026-05-06 08:08 | 27.99114 | 69.93224 | 31747 ft | 434 kts | 227° |
| 2026-05-06 08:09 | 27.94398 | 69.88960 | 31749 ft | 435 kts | 227° |
| 2026-05-06 08:09 | 27.89653 | 69.84676 | 31751 ft | 437 kts | 227° |
| 2026-05-06 08:10 | 27.84910 | 69.80423 | 31771 ft | 435 kts | 227° |
| 2026-05-06 08:10 | 27.80154 | 69.76144 | 31784 ft | 434 kts | 226° |
| 2026-05-06 08:11 | 27.75455 | 69.71918 | 31736 ft | 433 kts | 226° |
| 2026-05-06 08:11 | 27.70720 | 69.67663 | 31745 ft | 434 kts | 227° |
| 2026-05-06 08:12 | 27.66012 | 69.63437 | 31751 ft | 435 kts | 227° |
| 2026-05-06 08:12 | 27.61262 | 69.59177 | 31751 ft | 435 kts | 227° |
| 2026-05-06 08:13 | 27.56547 | 69.54956 | 31707 ft | 433 kts | 227° |
| 2026-05-06 08:13 | 27.51798 | 69.50706 | 31714 ft | 436 kts | 228° |
| 2026-05-06 08:14 | 27.47056 | 69.46468 | 31762 ft | 436 kts | 228° |
| 2026-05-06 08:14 | 27.42331 | 69.42254 | 31754 ft | 433 kts | 228° |
| 2026-05-06 08:15 | 27.37583 | 69.38020 | 31752 ft | 435 kts | 228° |
| 2026-05-06 08:15 | 27.32837 | 69.33790 | 31731 ft | 435 kts | 228° |
| 2026-05-06 08:16 | 27.28119 | 69.29577 | 31745 ft | 433 kts | 228° |
| 2026-05-06 08:16 | 27.23343 | 69.25429 | 31759 ft | 436 kts | 227° |
| 2026-05-06 08:17 | 27.18533 | 69.21300 | 31736 ft | 433 kts | 227° |
| 2026-05-06 08:17 | 27.13753 | 69.17181 | 31735 ft | 435 kts | 227° |
| 2026-05-06 08:18 | 27.08969 | 69.13065 | 31737 ft | 435 kts | 227° |
| 2026-05-06 08:18 | 27.04140 | 69.08913 | 31738 ft | 435 kts | 227° |
| 2026-05-06 08:19 | 26.99357 | 69.04806 | 31732 ft | 434 kts | 227° |
| 2026-05-06 08:19 | 26.94559 | 69.00690 | 31725 ft | 435 kts | 227° |
| 2026-05-06 08:20 | 26.89760 | 68.96579 | 31756 ft | 433 kts | 227° |
| 2026-05-06 08:20 | 26.84957 | 68.92489 | 31764 ft | 435 kts | 227° |
| 2026-05-06 08:21 | 26.80131 | 68.88369 | 31727 ft | 436 kts | 227° |
| 2026-05-06 08:21 | 26.75323 | 68.84263 | 31726 ft | 437 kts | 226° |
| 2026-05-06 08:22 | 26.70472 | 68.80125 | 31741 ft | 437 kts | 226° |
| 2026-05-06 08:22 | 26.65663 | 68.76028 | 31722 ft | 436 kts | 226° |
| 2026-05-06 08:23 | 26.60815 | 68.71900 | 31732 ft | 436 kts | 226° |
| 2026-05-06 08:23 | 26.55994 | 68.67793 | 31724 ft | 436 kts | 227° |
| 2026-05-06 08:24 | 26.51193 | 68.63693 | 31733 ft | 436 kts | 227° |
| 2026-05-06 08:24 | 26.46381 | 68.59586 | 31714 ft | 436 kts | 227° |
| 2026-05-06 08:25 | 26.41544 | 68.55461 | 31730 ft | 434 kts | 227° |
| 2026-05-06 08:25 | 26.36744 | 68.51371 | 31719 ft | 436 kts | 227° |
| 2026-05-06 08:26 | 26.31951 | 68.47295 | 31651 ft | 433 kts | 227° |
| 2026-05-06 08:26 | 26.29539 | 68.45245 | 30929 ft | 434 kts | 227° |
| 2026-05-06 08:26 | 26.27143 | 68.43205 | 29903 ft | 440 kts | 226° |
| 2026-05-06 08:27 | 26.24717 | 68.41143 | 28939 ft | 442 kts | 225° |
| 2026-05-06 08:27 | 26.22292 | 68.39088 | 28172 ft | 438 kts | 225° |
| 2026-05-06 08:27 | 26.19796 | 68.37100 | 27471 ft | 436 kts | 222° |
| 2026-05-06 08:27 | 26.17332 | 68.35232 | 26893 ft | 430 kts | 222° |
| 2026-05-06 08:28 | 26.14890 | 68.33370 | 26334 ft | 424 kts | 221° |
| 2026-05-06 08:28 | 26.12461 | 68.31505 | 25761 ft | 420 kts | 221° |
| 2026-05-06 08:28 | 26.10059 | 68.29662 | 25191 ft | 415 kts | 221° |
| 2026-05-06 08:28 | 26.07694 | 68.27852 | 24644 ft | 411 kts | 220° |
| 2026-05-06 08:29 | 26.05341 | 68.26051 | 24132 ft | 404 kts | 220° |
| 2026-05-06 08:29 | 26.03072 | 68.24322 | 24072 ft | 385 kts | 220° |
| 2026-05-06 08:29 | 26.00897 | 68.22659 | 23362 ft | 388 kts | 219° |
| 2026-05-06 08:29 | 25.98662 | 68.20946 | 22518 ft | 392 kts | 219° |
| 2026-05-06 08:30 | 25.96401 | 68.19219 | 21916 ft | 391 kts | 219° |
| 2026-05-06 08:30 | 25.94174 | 68.17521 | 21440 ft | 389 kts | 218° |
| 2026-05-06 08:30 | 25.91950 | 68.15826 | 20972 ft | 386 kts | 218° |
| 2026-05-06 08:30 | 25.89759 | 68.14156 | 20510 ft | 383 kts | 218° |
| 2026-05-06 08:31 | 25.87527 | 68.12463 | 19960 ft | 383 kts | 218° |
| 2026-05-06 08:31 | 25.85343 | 68.10808 | 19565 ft | 379 kts | 218° |
| 2026-05-06 08:31 | 25.83185 | 68.09169 | 19141 ft | 376 kts | 217° |
| 2026-05-06 08:31 | 25.81037 | 68.07536 | 18694 ft | 374 kts | 217° |
| 2026-05-06 08:32 | 25.78900 | 68.05911 | 18243 ft | 371 kts | 217° |
| 2026-05-06 08:32 | 25.76773 | 68.04294 | 17759 ft | 369 kts | 217° |
| 2026-05-06 08:32 | 25.74660 | 68.02689 | 17310 ft | 366 kts | 217° |
| 2026-05-06 08:32 | 25.72539 | 68.01077 | 16849 ft | 364 kts | 217° |
| 2026-05-06 08:33 | 25.70467 | 67.99504 | 16378 ft | 362 kts | 217° |
| 2026-05-06 08:33 | 25.68410 | 67.97865 | 15943 ft | 359 kts | 220° |
| 2026-05-06 08:33 | 25.66437 | 67.96190 | 15536 ft | 357 kts | 220° |
| 2026-05-06 08:33 | 25.64466 | 67.94525 | 15132 ft | 355 kts | 220° |
| 2026-05-06 08:34 | 25.62500 | 67.92874 | 14699 ft | 355 kts | 219° |
| 2026-05-06 08:34 | 25.58557 | 67.89575 | 13901 ft | 352 kts | 219° |
| 2026-05-06 08:34 | 25.56606 | 67.87946 | 13498 ft | 352 kts | 219° |
| 2026-05-06 08:35 | 25.54658 | 67.86320 | 13095 ft | 351 kts | 219° |
| 2026-05-06 08:35 | 25.52720 | 67.84703 | 12748 ft | 348 kts | 219° |
| 2026-05-06 08:35 | 25.50776 | 67.83083 | 12349 ft | 347 kts | 219° |
| 2026-05-06 08:35 | 25.48843 | 67.81472 | 11927 ft | 344 kts | 219° |
| 2026-05-06 08:36 | 25.46930 | 67.79878 | 11482 ft | 340 kts | 219° |
| 2026-05-06 08:36 | 25.45067 | 67.78327 | 11067 ft | 336 kts | 219° |
| 2026-05-06 08:36 | 25.43222 | 67.76792 | 10629 ft | 332 kts | 219° |
| 2026-05-06 08:36 | 25.41369 | 67.75249 | 10203 ft | 328 kts | 219° |
| 2026-05-06 08:37 | 25.39554 | 67.73741 | 9790 ft | 324 kts | 219° |
| 2026-05-06 08:37 | 25.37749 | 67.72240 | 9384 ft | 320 kts | 219° |
| 2026-05-06 08:37 | 25.35994 | 67.70783 | 9097 ft | 312 kts | 219° |
| 2026-05-06 08:37 | 25.34277 | 67.69357 | 8863 ft | 304 kts | 219° |
| 2026-05-06 08:38 | 25.32599 | 67.67963 | 8615 ft | 296 kts | 219° |
| 2026-05-06 08:38 | 25.30966 | 67.66608 | 8386 ft | 293 kts | 219° |
| 2026-05-06 08:38 | 25.29337 | 67.65256 | 8160 ft | 295 kts | 219° |
| 2026-05-06 08:38 | 25.27676 | 67.63878 | 7927 ft | 293 kts | 219° |
| 2026-05-06 08:39 | 25.26050 | 67.62530 | 7604 ft | 291 kts | 219° |
| 2026-05-06 08:39 | 25.24437 | 67.61193 | 7287 ft | 287 kts | 219° |
| 2026-05-06 08:39 | 25.22839 | 67.59869 | 7056 ft | 286 kts | 219° |
| 2026-05-06 08:39 | 25.21242 | 67.58546 | 6824 ft | 288 kts | 219° |
| 2026-05-06 08:40 | 25.19638 | 67.57217 | 6591 ft | 286 kts | 219° |
| 2026-05-06 08:40 | 25.18055 | 67.55906 | 6363 ft | 284 kts | 219° |
| 2026-05-06 08:40 | 25.16458 | 67.54585 | 6133 ft | 283 kts | 219° |
| 2026-05-06 08:40 | 25.14879 | 67.53278 | 5902 ft | 282 kts | 219° |
| 2026-05-06 08:41 | 25.13313 | 67.51984 | 5672 ft | 280 kts | 219° |
| 2026-05-06 08:41 | 25.11756 | 67.50697 | 5474 ft | 278 kts | 219° |
| 2026-05-06 08:41 | 25.10198 | 67.49410 | 5293 ft | 275 kts | 219° |
| 2026-05-06 08:41 | 25.08680 | 67.48156 | 5111 ft | 267 kts | 219° |
| 2026-05-06 08:42 | 25.07217 | 67.46948 | 4937 ft | 259 kts | 219° |
| 2026-05-06 08:42 | 25.05792 | 67.45772 | 4765 ft | 252 kts | 219° |
| 2026-05-06 08:42 | 25.04424 | 67.44576 | 4596 ft | 245 kts | 221° |
| 2026-05-06 08:42 | 25.03129 | 67.43413 | 4414 ft | 239 kts | 221° |
| 2026-05-06 08:43 | 25.01832 | 67.42239 | 4244 ft | 238 kts | 221° |
| 2026-05-06 08:43 | 25.00548 | 67.41074 | 4078 ft | 239 kts | 221° |
| 2026-05-06 08:43 | 24.99266 | 67.39906 | 3918 ft | 238 kts | 221° |
| 2026-05-06 08:43 | 24.97989 | 67.38744 | 3754 ft | 235 kts | 221° |
| 2026-05-06 08:44 | 24.96752 | 67.37614 | 3566 ft | 227 kts | 221° |
| 2026-05-06 08:44 | 24.95767 | 67.36308 | 3352 ft | 215 kts | 244° |
| 2026-05-06 08:44 | 24.95200 | 67.34827 | 3145 ft | 207 kts | 252° |
| 2026-05-06 08:44 | 24.94808 | 67.33320 | 2895 ft | 200 kts | 256° |
| 2026-05-06 08:45 | 24.94482 | 67.31854 | 2623 ft | 195 kts | 256° |
| 2026-05-06 08:45 | 24.94158 | 67.30415 | 2356 ft | 189 kts | 255° |
| 2026-05-06 08:45 | 24.93829 | 67.29034 | 2113 ft | 183 kts | 254° |
| 2026-05-06 08:45 | 24.93507 | 67.27732 | 1894 ft | 169 kts | 253° |
| 2026-05-06 08:46 | 24.93194 | 67.26502 | 1679 ft | 160 kts | 253° |
| 2026-05-06 08:46 | 24.92897 | 67.25343 | 1479 ft | 148 kts | 253° |
| 2026-05-06 08:46 | 24.92622 | 67.24266 | 1303 ft | 132 kts | 252° |
| 2026-05-06 08:46 | 24.92375 | 67.23263 | 1047 ft | 128 kts | 255° |
| 2026-05-06 08:47 | 24.92158 | 67.22237 | 864 ft | 134 kts | 255° |
| 2026-05-06 08:47 | 24.91874 | 67.21170 | 732 ft | 139 kts | 249° |
| 2026-05-06 08:47 | 24.91547 | 67.20068 | 582 ft | 145 kts | 252° |
| 2026-05-06 08:47 | 24.91252 | 67.18912 | 402 ft | 144 kts | 252° |
| 2026-05-06 08:48 | 24.90961 | 67.17776 | 181 ft | 141 kts | 251° |
| 2026-05-06 08:48 | 24.90680 | 67.16715 | 85 ft | 129 kts | 253° |
| 2026-05-06 08:48 | 24.90472 | 67.15889 | 84 ft | 81 kts | 255° |
| 2026-05-06 08:48 | 24.90353 | 67.15421 | 81 ft | 47 kts | 254° |
| 2026-05-06 08:49 | 24.90274 | 67.15119 | 79 ft | 35 kts | 248° |
| 2026-05-06 08:49 | 24.90135 | 67.14908 | 77 ft | 25 kts | 222° |
| 2026-05-06 08:49 | 24.90042 | 67.14890 | 77 ft | 11 kts | 134° |
| 2026-05-06 08:49 | 24.90041 | 67.14971 | 77 ft | 11 kts | 74° |
| 2026-05-06 08:50 | 24.90068 | 67.15075 | 77 ft | 17 kts | 73° |
| 2026-05-06 08:50 | 24.90104 | 67.15208 | 77 ft | 19 kts | 75° |
| 2026-05-06 08:50 | 24.90139 | 67.15353 | 78 ft | 18 kts | 74° |
| 2026-05-06 08:50 | 24.90177 | 67.15500 | 77 ft | 20 kts | 74° |
| 2026-05-06 08:51 | 24.90211 | 67.15637 | 80 ft | 16 kts | 75° |
| 2026-05-06 08:51 | 24.90243 | 67.15768 | 80 ft | 18 kts | 73° |
| 2026-05-06 08:51 | 24.90280 | 67.15905 | 82 ft | 16 kts | 73° |
| 2026-05-06 08:51 | 24.90301 | 67.15994 | 83 ft | 7 kts | 76° |
| 2026-05-06 08:52 | 24.90316 | 67.16058 | 84 ft | 9 kts | 74° |
| 2026-05-06 08:52 | 24.90337 | 67.16134 | 84 ft | 10 kts | 73° |
| 2026-05-06 08:52 | 24.90302 | 67.16196 | 84 ft | 10 kts | 159° |
| 2026-05-06 08:52 | 24.90250 | 67.16213 | 84 ft | 5 kts | 166° |
| 2026-05-06 08:53 | 24.90243 | 67.16215 | 84 ft | 0 kts | 166° |